sensor_id;sensor_type;location;lat;lon;timestamp;pressure;altitude;pressure_sealevel;temperature;humidity
26083;BME280;13848;49.018;12.078;2023-03-15T00:02:00;96927.06;;;4.66;70.56
26083;BME280;13848;49.018;12.078;2023-03-15T00:04:27;96930.38;;;4.94;70.43
26083;BME280;13848;49.018;12.078;2023-03-15T00:06:54;96932.84;;;5.02;70.58
26083;BME280;13848;49.018;12.078;2023-03-15T00:09:20;96941.28;;;5.13;68.97
26083;BME280;13848;49.018;12.078;2023-03-15T00:11:47;96938.41;;;5.07;70.01
26083;BME280;13848;49.018;12.078;2023-03-15T00:14:13;96950.13;;;5.00;69.70
26083;BME280;13848;49.018;12.078;2023-03-15T00:16:38;96948.06;;;4.95;70.27
26083;BME280;13848;49.018;12.078;2023-03-15T00:19:04;96947.22;;;5.01;70.79
26083;BME280;13848;49.018;12.078;2023-03-15T00:21:30;96950.13;;;5.00;70.35
26083;BME280;13848;49.018;12.078;2023-03-15T00:23:58;96947.22;;;5.01;70.35
26083;BME280;13848;49.018;12.078;2023-03-15T00:26:23;96941.69;;;4.96;70.88
26083;BME280;13848;49.018;12.078;2023-03-15T00:28:50;96954.63;;;5.06;70.05
26083;BME280;13848;49.018;12.078;2023-03-15T00:31:18;96957.53;;;5.11;70.11
26083;BME280;13848;49.018;12.078;2023-03-15T00:33:44;96977.44;;;5.08;69.41
26083;BME280;13848;49.018;12.078;2023-03-15T00:36:11;96983.97;;;4.86;69.95
26083;BME280;13848;49.018;12.078;2023-03-15T00:38:39;96982.75;;;4.82;70.49
26083;BME280;13848;49.018;12.078;2023-03-15T00:41:08;96989.91;;;4.75;71.23
26083;BME280;13848;49.018;12.078;2023-03-15T00:43:35;96994.41;;;4.54;70.78
26083;BME280;13848;49.018;12.078;2023-03-15T00:46:02;96991.31;;;4.58;71.22
26083;BME280;13848;49.018;12.078;2023-03-15T00:48:28;96993.94;;;4.44;71.35
26083;BME280;13848;49.018;12.078;2023-03-15T00:51:01;96990.47;;;4.50;71.54
26083;BME280;13848;49.018;12.078;2023-03-15T00:53:27;97001.34;;;4.49;72.07
26083;BME280;13848;49.018;12.078;2023-03-15T00:55:53;97008.13;;;4.51;70.81
26083;BME280;13848;49.018;12.078;2023-03-15T00:58:20;97007.06;;;4.46;71.50
26083;BME280;13848;49.018;12.078;2023-03-15T01:00:46;96993.72;;;4.39;71.77
26083;BME280;13848;49.018;12.078;2023-03-15T01:03:12;97002.91;;;4.23;71.49
26083;BME280;13848;49.018;12.078;2023-03-15T01:05:38;97012.38;;;4.33;70.63
26083;BME280;13848;49.018;12.078;2023-03-15T01:08:04;97003.34;;;4.40;71.35
26083;BME280;13848;49.018;12.078;2023-03-15T01:10:30;97000.53;;;4.00;72.02
26083;BME280;13848;49.018;12.078;2023-03-15T01:12:56;96996.34;;;4.26;71.52
26083;BME280;13848;49.018;12.078;2023-03-15T01:15:23;97005.19;;;4.33;70.62
26083;BME280;13848;49.018;12.078;2023-03-15T01:17:49;97005.38;;;4.25;70.98
26083;BME280;13848;49.018;12.078;2023-03-15T01:20:15;97005.41;;;4.32;71.67
26083;BME280;13848;49.018;12.078;2023-03-15T01:22:41;97003.72;;;4.24;71.58
26083;BME280;13848;49.018;12.078;2023-03-15T01:25:08;97014.03;;;3.99;72.99
26083;BME280;13848;49.018;12.078;2023-03-15T01:27:34;97014.22;;;3.91;72.61
26083;BME280;13848;49.018;12.078;2023-03-15T01:30:00;97024.53;;;4.00;73.07
26083;BME280;13848;49.018;12.078;2023-03-15T01:32:27;97032.69;;;3.92;72.67
26083;BME280;13848;49.018;12.078;2023-03-15T01:34:53;97026.09;;;3.88;72.90
26083;BME280;13848;49.018;12.078;2023-03-15T01:37:19;97025.47;;;3.86;73.27
26083;BME280;13848;49.018;12.078;2023-03-15T01:39:47;97023.28;;;3.96;72.52
26083;BME280;13848;49.018;12.078;2023-03-15T01:42:13;97024.53;;;4.00;72.81
26083;BME280;13848;49.018;12.078;2023-03-15T01:44:52;97022.97;;;4.13;72.56
26083;BME280;13848;49.018;12.078;2023-03-15T01:47:18;97027.41;;;4.06;72.26
26083;BME280;13848;49.018;12.078;2023-03-15T01:49:49;97026.25;;;4.15;71.57
26083;BME280;13848;49.018;12.078;2023-03-15T01:52:19;97016.84;;;4.19;71.80
26083;BME280;13848;49.018;12.078;2023-03-15T01:54:51;97022.16;;;4.19;71.80
26083;BME280;13848;49.018;12.078;2023-03-15T01:57:21;97030.78;;;4.21;71.56
26083;BME280;13848;49.018;12.078;2023-03-15T01:59:51;97026.25;;;4.15;71.73
26083;BME280;13848;49.018;12.078;2023-03-15T02:02:20;97032.81;;;4.12;71.87
26083;BME280;13848;49.018;12.078;2023-03-15T02:04:54;97026.69;;;4.18;72.81
26083;BME280;13848;49.018;12.078;2023-03-15T02:07:24;97043.38;;;3.99;72.75
26083;BME280;13848;49.018;12.078;2023-03-15T02:09:56;97049.63;;;4.13;72.40
26083;BME280;13848;49.018;12.078;2023-03-15T02:12:24;97066.03;;;4.10;72.28
26083;BME280;13848;49.018;12.078;2023-03-15T02:14:50;97068.69;;;4.10;72.38
26083;BME280;13848;49.018;12.078;2023-03-15T02:17:18;97069.34;;;4.12;72.19
26083;BME280;13848;49.018;12.078;2023-03-15T02:19:55;97083.66;;;4.11;73.26
26083;BME280;13848;49.018;12.078;2023-03-15T02:22:28;97081.34;;;3.94;72.68
26083;BME280;13848;49.018;12.078;2023-03-15T02:25:00;97088.16;;;4.04;72.75
26083;BME280;13848;49.018;12.078;2023-03-15T02:27:31;97097.22;;;4.09;72.88
26083;BME280;13848;49.018;12.078;2023-03-15T02:29:59;97097.25;;;4.16;73.09
26083;BME280;13848;49.018;12.078;2023-03-15T02:32:26;97099.72;;;4.17;72.58
26083;BME280;13848;49.018;12.078;2023-03-15T02:34:52;97099.69;;;4.11;72.53
26083;BME280;13848;49.018;12.078;2023-03-15T02:37:22;97103.56;;;4.08;73.41
26083;BME280;13848;49.018;12.078;2023-03-15T02:39:48;97116.56;;;4.18;72.44
26083;BME280;13848;49.018;12.078;2023-03-15T02:42:15;97115.25;;;4.07;72.72
26083;BME280;13848;49.018;12.078;2023-03-15T02:44:44;97121.41;;;4.08;72.60
26083;BME280;13848;49.018;12.078;2023-03-15T02:47:14;97129.19;;;4.03;72.91
26083;BME280;13848;49.018;12.078;2023-03-15T02:49:44;97132.88;;;4.02;72.45
26083;BME280;13848;49.018;12.078;2023-03-15T02:52:12;97149.22;;;3.70;74.24
26083;BME280;13848;49.018;12.078;2023-03-15T02:54:39;97154.47;;;3.85;73.84
26083;BME280;13848;49.018;12.078;2023-03-15T02:57:05;97158.59;;;3.88;73.21
26083;BME280;13848;49.018;12.078;2023-03-15T02:59:31;97167.56;;;3.59;74.34
26083;BME280;13848;49.018;12.078;2023-03-15T03:01:58;97173.09;;;3.57;74.73
26083;BME280;13848;49.018;12.078;2023-03-15T03:04:24;97182.66;;;3.52;74.55
26083;BME280;13848;49.018;12.078;2023-03-15T03:06:50;97175.16;;;3.40;74.66
26083;BME280;13848;49.018;12.078;2023-03-15T03:09:16;97182.16;;;3.05;75.58
26083;BME280;13848;49.018;12.078;2023-03-15T03:11:42;97191.22;;;3.11;75.32
26083;BME280;13848;49.018;12.078;2023-03-15T03:14:08;97190.41;;;2.96;76.09
26083;BME280;13848;49.018;12.078;2023-03-15T03:16:34;97200.72;;;2.84;77.29
26083;BME280;13848;49.018;12.078;2023-03-15T03:19:01;97213.13;;;2.91;76.64
26083;BME280;13848;49.018;12.078;2023-03-15T03:21:27;97219.09;;;2.93;77.15
26083;BME280;13848;49.018;12.078;2023-03-15T03:23:53;97224.69;;;2.84;76.76
26083;BME280;13848;49.018;12.078;2023-03-15T03:26:20;97235.06;;;2.93;76.65
26083;BME280;13848;49.018;12.078;2023-03-15T03:28:46;97249.38;;;2.63;77.21
26083;BME280;13848;49.018;12.078;2023-03-15T03:31:16;97251.41;;;2.61;76.63
26083;BME280;13848;49.018;12.078;2023-03-15T03:33:43;97260.47;;;2.66;76.87
26083;BME280;13848;49.018;12.078;2023-03-15T03:36:10;97269.41;;;2.74;76.55
26083;BME280;13848;49.018;12.078;2023-03-15T03:38:36;97261.31;;;2.67;76.96
26083;BME280;13848;49.018;12.078;2023-03-15T03:41:02;97272.44;;;2.85;76.62
26083;BME280;13848;49.018;12.078;2023-03-15T03:43:28;97280.41;;;2.85;76.46
26083;BME280;13848;49.018;12.078;2023-03-15T03:45:54;97284.34;;;2.89;76.17
26083;BME280;13848;49.018;12.078;2023-03-15T03:48:20;97290.78;;;2.95;75.80
26083;BME280;13848;49.018;12.078;2023-03-15T03:50:45;97299.22;;;2.84;76.40
26083;BME280;13848;49.018;12.078;2023-03-15T03:53:13;97300.25;;;2.98;76.43
26083;BME280;13848;49.018;12.078;2023-03-15T03:55:39;97311.19;;;3.03;76.52
26083;BME280;13848;49.018;12.078;2023-03-15T03:58:05;97311.72;;;3.13;75.65
26083;BME280;13848;49.018;12.078;2023-03-15T04:00:31;97322.38;;;3.13;76.68
26083;BME280;13848;49.018;12.078;2023-03-15T04:02:56;97317.63;;;3.08;76.37
26083;BME280;13848;49.018;12.078;2023-03-15T04:05:22;97313.94;;;3.09;76.37
26083;BME280;13848;49.018;12.078;2023-03-15T04:07:48;97325.69;;;3.15;76.67
26083;BME280;13848;49.018;12.078;2023-03-15T04:10:16;97324.97;;;3.21;76.40
26083;BME280;13848;49.018;12.078;2023-03-15T04:12:42;97322.56;;;3.26;76.08
26083;BME280;13848;49.018;12.078;2023-03-15T04:15:08;97329.28;;;3.22;75.98
26083;BME280;13848;49.018;12.078;2023-03-15T04:17:34;97334.31;;;3.17;76.05
26083;BME280;13848;49.018;12.078;2023-03-15T04:20:00;97337.53;;;3.27;75.83
26083;BME280;13848;49.018;12.078;2023-03-15T04:22:26;97343.78;;;3.34;76.29
26083;BME280;13848;49.018;12.078;2023-03-15T04:24:52;97344.44;;;3.36;76.07
26083;BME280;13848;49.018;12.078;2023-03-15T04:27:19;97350.22;;;3.25;76.18
26083;BME280;13848;49.018;12.078;2023-03-15T04:29:45;97354.31;;;3.13;77.24
26083;BME280;13848;49.018;12.078;2023-03-15T04:32:11;97352.88;;;3.10;77.31
26083;BME280;13848;49.018;12.078;2023-03-15T04:34:37;97364.53;;;3.24;77.86
26083;BME280;13848;49.018;12.078;2023-03-15T04:37:03;97365.28;;;3.33;76.69
26083;BME280;13848;49.018;12.078;2023-03-15T04:39:29;97370.81;;;3.31;76.71
26083;BME280;13848;49.018;12.078;2023-03-15T04:41:55;97371.63;;;3.32;76.34
26083;BME280;13848;49.018;12.078;2023-03-15T04:44:22;97384.75;;;3.33;77.02
26083;BME280;13848;49.018;12.078;2023-03-15T04:46:48;97385.03;;;3.38;77.08
26083;BME280;13848;49.018;12.078;2023-03-15T04:49:14;97395.50;;;3.40;77.05
26083;BME280;13848;49.018;12.078;2023-03-15T04:51:40;97411.06;;;3.36;77.01
26083;BME280;13848;49.018;12.078;2023-03-15T04:54:06;97409.91;;;3.16;78.28
26083;BME280;13848;49.018;12.078;2023-03-15T04:56:32;97407.88;;;3.18;78.02
26083;BME280;13848;49.018;12.078;2023-03-15T04:58:58;97412.47;;;3.24;77.63
26083;BME280;13848;49.018;12.078;2023-03-15T05:01:27;97426.03;;;3.37;77.17
26083;BME280;13848;49.018;12.078;2023-03-15T05:03:54;97437.31;;;3.39;77.56
26083;BME280;13848;49.018;12.078;2023-03-15T05:06:20;97436.50;;;3.39;77.78
26083;BME280;13848;49.018;12.078;2023-03-15T05:08:45;97444.38;;;3.47;77.38
26083;BME280;13848;49.018;12.078;2023-03-15T05:11:12;97440.56;;;3.50;76.92
26083;BME280;13848;49.018;12.078;2023-03-15T05:13:38;97448.25;;;3.44;77.04
26083;BME280;13848;49.018;12.078;2023-03-15T05:16:04;97448.53;;;3.50;76.88
26083;BME280;13848;49.018;12.078;2023-03-15T05:18:32;97455.34;;;3.52;76.77
26083;BME280;13848;49.018;12.078;2023-03-15T05:20:58;97460.38;;;3.47;76.94
26083;BME280;13848;49.018;12.078;2023-03-15T05:23:24;97466.16;;;3.21;77.58
26083;BME280;13848;49.018;12.078;2023-03-15T05:25:50;97475.50;;;3.17;76.90
26083;BME280;13848;49.018;12.078;2023-03-15T05:28:16;97483.13;;;3.20;77.08
26083;BME280;13848;49.018;12.078;2023-03-15T05:30:42;97488.75;;;3.25;77.26
26083;BME280;13848;49.018;12.078;2023-03-15T05:33:08;97496.09;;;3.23;77.77
26083;BME280;13848;49.018;12.078;2023-03-15T05:35:36;97504.06;;;3.23;77.35
26083;BME280;13848;49.018;12.078;2023-03-15T05:38:01;97505.47;;;3.19;76.57
26083;BME280;13848;49.018;12.078;2023-03-15T05:40:27;97502.84;;;3.11;76.96
26083;BME280;13848;49.018;12.078;2023-03-15T05:42:53;97508.19;;;3.11;77.00
26083;BME280;13848;49.018;12.078;2023-03-15T05:45:19;97514.13;;;2.98;77.20
26083;BME280;13848;49.018;12.078;2023-03-15T05:47:45;97517.06;;;3.03;76.97
26083;BME280;13848;49.018;12.078;2023-03-15T05:50:11;97514.22;;;3.05;76.93
26083;BME280;13848;49.018;12.078;2023-03-15T05:52:39;97524.38;;;3.01;76.55
26083;BME280;13848;49.018;12.078;2023-03-15T05:55:05;97524.56;;;3.00;76.32
26083;BME280;13848;49.018;12.078;2023-03-15T05:57:31;97529.25;;;2.98;76.48
26083;BME280;13848;49.018;12.078;2023-03-15T05:59:57;97532.66;;;2.83;76.30
26083;BME280;13848;49.018;12.078;2023-03-15T06:02:23;97541.03;;;2.80;76.66
26083;BME280;13848;49.018;12.078;2023-03-15T06:04:49;97540.72;;;2.75;76.51
26083;BME280;13848;49.018;12.078;2023-03-15T06:07:14;97544.41;;;2.74;76.31
26083;BME280;13848;49.018;12.078;2023-03-15T06:09:42;97546.16;;;2.82;76.84
26083;BME280;13848;49.018;12.078;2023-03-15T06:12:08;97548.53;;;3.00;76.41
26083;BME280;13848;49.018;12.078;2023-03-15T06:14:34;97554.81;;;3.07;76.25
26083;BME280;13848;49.018;12.078;2023-03-15T06:17:00;97563.88;;;3.20;76.29
26083;BME280;13848;49.018;12.078;2023-03-15T06:19:26;97563.88;;;3.20;75.95
26083;BME280;13848;49.018;12.078;2023-03-15T06:21:52;97578.94;;;3.36;74.77
26083;BME280;13848;49.018;12.078;2023-03-15T06:24:18;97571.19;;;3.41;74.07
26083;BME280;13848;49.018;12.078;2023-03-15T06:26:45;97570.34;;;3.64;74.04
26083;BME280;13848;49.018;12.078;2023-03-15T06:29:11;97585.91;;;3.75;73.30
26083;BME280;13848;49.018;12.078;2023-03-15T06:31:37;97586.75;;;3.90;72.83
26083;BME280;13848;49.018;12.078;2023-03-15T06:34:03;97583.56;;;4.10;71.91
26083;BME280;13848;49.018;12.078;2023-03-15T06:36:29;97591.75;;;4.08;71.84
26083;BME280;13848;49.018;12.078;2023-03-15T06:38:55;97598.38;;;4.27;71.63
26083;BME280;13848;49.018;12.078;2023-03-15T06:41:21;97598.47;;;4.48;71.28
26083;BME280;13848;49.018;12.078;2023-03-15T06:43:48;97604.44;;;4.50;70.14
26083;BME280;13848;49.018;12.078;2023-03-15T06:46:14;97600.53;;;4.83;70.06
26083;BME280;13848;49.018;12.078;2023-03-15T06:48:40;97596.91;;;4.90;70.83
26083;BME280;13848;49.018;12.078;2023-03-15T06:51:06;97602.19;;;5.20;69.46
26083;BME280;13848;49.018;12.078;2023-03-15T06:53:32;97605.22;;;5.38;68.16
26083;BME280;13848;49.018;12.078;2023-03-15T06:55:58;97612.88;;;5.20;66.76
26083;BME280;13848;49.018;12.078;2023-03-15T06:58:24;97629.28;;;4.66;66.55
26083;BME280;13848;49.018;12.078;2023-03-15T07:00:51;97636.50;;;5.01;67.60
26083;BME280;13848;49.018;12.078;2023-03-15T07:03:17;97633.56;;;4.96;66.32
26083;BME280;13848;49.018;12.078;2023-03-15T07:05:43;97622.44;;;5.29;66.36
26083;BME280;13848;49.018;12.078;2023-03-15T07:08:09;97630.44;;;5.50;65.98
26083;BME280;13848;49.018;12.078;2023-03-15T07:10:35;97634.50;;;5.25;63.28
26083;BME280;13848;49.018;12.078;2023-03-15T07:13:01;97636.03;;;5.13;65.75
26083;BME280;13848;49.018;12.078;2023-03-15T07:15:27;97641.38;;;5.13;66.63
26083;BME280;13848;49.018;12.078;2023-03-15T07:17:54;97647.03;;;4.88;66.14
26083;BME280;13848;49.018;12.078;2023-03-15T07:20:20;97651.75;;;4.71;65.93
26083;BME280;13848;49.018;12.078;2023-03-15T07:22:46;97652.38;;;4.88;66.68
26083;BME280;13848;49.018;12.078;2023-03-15T07:25:12;97658.69;;;5.17;66.32
26083;BME280;13848;49.018;12.078;2023-03-15T07:27:38;97665.94;;;4.72;64.76
26083;BME280;13848;49.018;12.078;2023-03-15T07:30:05;97660.66;;;4.64;65.69
26083;BME280;13848;49.018;12.078;2023-03-15T07:32:31;97654.06;;;5.25;65.04
26083;BME280;13848;49.018;12.078;2023-03-15T07:34:58;97648.66;;;5.40;64.36
26083;BME280;13848;49.018;12.078;2023-03-15T07:37:24;97658.03;;;5.15;63.81
26083;BME280;13848;49.018;12.078;2023-03-15T07:39:50;97659.75;;;4.86;63.95
26083;BME280;13848;49.018;12.078;2023-03-15T07:42:16;97659.84;;;5.29;64.60
26083;BME280;13848;49.018;12.078;2023-03-15T07:44:42;97654.66;;;5.42;64.32
26083;BME280;13848;49.018;12.078;2023-03-15T07:47:08;97657.09;;;5.80;64.42
26083;BME280;13848;49.018;12.078;2023-03-15T07:49:34;97665.97;;;5.23;62.55
26083;BME280;13848;49.018;12.078;2023-03-15T07:52:01;97672.81;;;5.11;63.83
26083;BME280;13848;49.018;12.078;2023-03-15T07:54:27;97679.13;;;5.10;63.17
26083;BME280;13848;49.018;12.078;2023-03-15T07:56:53;97686.66;;;4.70;62.50
26083;BME280;13848;49.018;12.078;2023-03-15T07:59:19;97685.47;;;4.72;61.91
26083;BME280;13848;49.018;12.078;2023-03-15T08:01:45;97696.63;;;4.76;61.98
26083;BME280;13848;49.018;12.078;2023-03-15T08:04:11;97683.34;;;4.68;62.61
26083;BME280;13848;49.018;12.078;2023-03-15T08:06:37;97687.84;;;4.67;62.46
26083;BME280;13848;49.018;12.078;2023-03-15T08:09:04;97694.28;;;4.73;62.42
26083;BME280;13848;49.018;12.078;2023-03-15T08:11:30;97691.06;;;4.92;62.20
26083;BME280;13848;49.018;12.078;2023-03-15T08:13:56;97690.69;;;4.95;61.50
26083;BME280;13848;49.018;12.078;2023-03-15T08:16:22;97693.28;;;4.74;61.53
26083;BME280;13848;49.018;12.078;2023-03-15T08:18:48;97693.66;;;4.71;61.58
26083;BME280;13848;49.018;12.078;2023-03-15T08:21:14;97688.84;;;4.96;61.30
26083;BME280;13848;49.018;12.078;2023-03-15T08:23:40;97693.19;;;4.82;62.42
26083;BME280;13848;49.018;12.078;2023-03-15T08:26:07;97690.28;;;5.28;61.47
26083;BME280;13848;49.018;12.078;2023-03-15T08:28:33;97692.28;;;5.26;61.95
26083;BME280;13848;49.018;12.078;2023-03-15T08:30:59;97681.22;;;5.65;60.51
26083;BME280;13848;49.018;12.078;2023-03-15T08:33:26;97689.16;;;5.58;60.52
26083;BME280;13848;49.018;12.078;2023-03-15T08:35:52;97687.00;;;6.11;60.79
26083;BME280;13848;49.018;12.078;2023-03-15T08:38:18;97694.97;;;5.26;58.75
26083;BME280;13848;49.018;12.078;2023-03-15T08:40:44;97684.59;;;6.17;60.93
26083;BME280;13848;49.018;12.078;2023-03-15T08:43:11;97695.06;;;6.68;58.86
26083;BME280;13848;49.018;12.078;2023-03-15T08:45:37;97693.34;;;6.94;57.58
26083;BME280;13848;49.018;12.078;2023-03-15T08:48:03;97690.25;;;7.52;57.31
26083;BME280;13848;49.018;12.078;2023-03-15T08:50:29;97686.19;;;7.69;56.78
26083;BME280;13848;49.018;12.078;2023-03-15T08:52:55;97678.94;;;7.70;56.01
26083;BME280;13848;49.018;12.078;2023-03-15T08:55:22;97688.22;;;7.54;55.83
26083;BME280;13848;49.018;12.078;2023-03-15T08:57:48;97687.75;;;7.31;55.12
26083;BME280;13848;49.018;12.078;2023-03-15T09:02:42;97697.78;;;7.15;54.91
26083;BME280;13848;49.018;12.078;2023-03-15T09:05:08;97698.97;;;6.72;54.26
26083;BME280;13848;49.018;12.078;2023-03-15T09:07:33;97695.97;;;6.88;55.32
26083;BME280;13848;49.018;12.078;2023-03-15T09:09:59;97703.28;;;7.55;53.78
26083;BME280;13848;49.018;12.078;2023-03-15T09:12:25;97699.31;;;6.55;52.55
26083;BME280;13848;49.018;12.078;2023-03-15T09:14:51;97707.00;;;5.73;55.01
26083;BME280;13848;49.018;12.078;2023-03-15T09:17:19;97709.00;;;5.49;54.61
26083;BME280;13848;49.018;12.078;2023-03-15T09:19:44;97707.19;;;5.71;55.43
26083;BME280;13848;49.018;12.078;2023-03-15T09:22:10;97711.84;;;5.84;54.05
26083;BME280;13848;49.018;12.078;2023-03-15T09:24:36;97709.34;;;6.25;54.09
26083;BME280;13848;49.018;12.078;2023-03-15T09:27:02;97713.31;;;6.29;53.62
26083;BME280;13848;49.018;12.078;2023-03-15T09:29:28;97724.66;;;6.94;55.38
26083;BME280;13848;49.018;12.078;2023-03-15T09:31:54;97719.94;;;6.61;52.46
26083;BME280;13848;49.018;12.078;2023-03-15T09:34:22;97715.88;;;6.72;50.54
26083;BME280;13848;49.018;12.078;2023-03-15T09:36:47;97714.19;;;7.54;51.55
26083;BME280;13848;49.018;12.078;2023-03-15T09:39:13;97713.91;;;8.23;50.92
26083;BME280;13848;49.018;12.078;2023-03-15T09:41:42;97717.63;;;8.02;50.25
26083;BME280;13848;49.018;12.078;2023-03-15T09:44:13;97730.09;;;8.43;48.92
26083;BME280;13848;49.018;12.078;2023-03-15T09:46:48;97737.47;;;8.94;50.79
26083;BME280;13848;49.018;12.078;2023-03-15T09:49:20;97741.47;;;9.43;46.94
26083;BME280;13848;49.018;12.078;2023-03-15T09:51:57;97741.41;;;10.32;45.87
26083;BME280;13848;49.018;12.078;2023-03-15T09:54:27;97744.97;;;9.88;44.82
26083;BME280;13848;49.018;12.078;2023-03-15T09:56:59;97736.25;;;8.57;46.28
26083;BME280;13848;49.018;12.078;2023-03-15T09:59:31;97746.25;;;7.75;47.50
26083;BME280;13848;49.018;12.078;2023-03-15T10:02:00;97747.03;;;7.49;46.51
26083;BME280;13848;49.018;12.078;2023-03-15T10:04:29;97737.94;;;8.64;48.28
26083;BME280;13848;49.018;12.078;2023-03-15T10:06:59;97749.88;;;8.22;44.33
26083;BME280;13848;49.018;12.078;2023-03-15T10:09:28;97762.91;;;7.51;45.31
26083;BME280;13848;49.018;12.078;2023-03-15T10:12:01;97748.13;;;7.81;46.18
26083;BME280;13848;49.018;12.078;2023-03-15T10:17:25;97753.22;;;8.50;46.31
26083;BME280;13848;49.018;12.078;2023-03-15T10:19:59;97751.09;;;8.06;45.86
26083;BME280;13848;49.018;12.078;2023-03-15T10:22:32;97751.94;;;8.86;45.80
26083;BME280;13848;49.018;12.078;2023-03-15T10:25:09;97744.25;;;9.74;44.94
26083;BME280;13848;49.018;12.078;2023-03-15T10:27:41;97746.47;;;9.32;44.00
26083;BME280;13848;49.018;12.078;2023-03-15T10:30:15;97749.25;;;8.93;44.24
26083;BME280;13848;49.018;12.078;2023-03-15T10:32:43;97751.75;;;8.74;44.79
26083;BME280;13848;49.018;12.078;2023-03-15T10:35:13;97746.81;;;8.78;46.40
26083;BME280;13848;49.018;12.078;2023-03-15T10:37:41;97750.09;;;9.58;44.76
26083;BME280;13848;49.018;12.078;2023-03-15T10:40:09;97756.03;;;9.15;44.41
26083;BME280;13848;49.018;12.078;2023-03-15T10:42:35;97746.34;;;8.21;44.96
26083;BME280;13848;49.018;12.078;2023-03-15T10:45:11;97748.00;;;8.16;45.25
26083;BME280;13848;49.018;12.078;2023-03-15T10:47:39;97743.72;;;8.55;44.65
26083;BME280;13848;49.018;12.078;2023-03-15T10:50:08;97748.44;;;8.79;44.20
26083;BME280;13848;49.018;12.078;2023-03-15T10:52:36;97741.44;;;8.71;43.16
26083;BME280;13848;49.018;12.078;2023-03-15T10:55:06;97739.94;;;8.22;43.94
26083;BME280;13848;49.018;12.078;2023-03-15T10:57:37;97732.09;;;8.01;44.09
26083;BME280;13848;49.018;12.078;2023-03-15T11:00:28;97732.16;;;8.41;44.73
26083;BME280;13848;49.018;12.078;2023-03-15T11:03:00;97732.75;;;8.83;43.85
26083;BME280;13848;49.018;12.078;2023-03-15T11:05:29;97729.63;;;8.99;44.77
26083;BME280;13848;49.018;12.078;2023-03-15T11:07:57;97732.66;;;9.16;44.15
26083;BME280;13848;49.018;12.078;2023-03-15T11:10:26;97716.84;;;9.46;44.22
26083;BME280;13848;49.018;12.078;2023-03-15T11:13:10;97716.63;;;9.41;45.01
26083;BME280;13848;49.018;12.078;2023-03-15T11:15:38;97713.09;;;9.47;43.11
26083;BME280;13848;49.018;12.078;2023-03-15T11:18:05;97715.34;;;9.50;43.72
26083;BME280;13848;49.018;12.078;2023-03-15T11:20:33;97699.69;;;10.10;43.66
26083;BME280;13848;49.018;12.078;2023-03-15T11:23:07;97708.22;;;10.32;43.79
26083;BME280;13848;49.018;12.078;2023-03-15T11:25:39;97701.31;;;10.43;42.77
26083;BME280;13848;49.018;12.078;2023-03-15T11:28:10;97694.81;;;9.94;41.71
26083;BME280;13848;49.018;12.078;2023-03-15T11:30:40;97696.00;;;9.66;42.93
26083;BME280;13848;49.018;12.078;2023-03-15T11:33:07;97695.50;;;10.14;42.98
26083;BME280;13848;49.018;12.078;2023-03-15T11:35:39;97695.31;;;10.41;42.68
26083;BME280;13848;49.018;12.078;2023-03-15T11:38:09;97697.06;;;11.33;46.16
26083;BME280;13848;49.018;12.078;2023-03-15T11:40:41;97696.31;;;11.44;44.15
26083;BME280;13848;49.018;12.078;2023-03-15T11:43:11;97689.81;;;10.54;42.40
26083;BME280;13848;49.018;12.078;2023-03-15T11:45:43;97704.41;;;9.83;42.00
26083;BME280;13848;49.018;12.078;2023-03-15T11:48:13;97691.66;;;9.20;42.06
26083;BME280;13848;49.018;12.078;2023-03-15T11:50:41;97694.88;;;8.91;42.76
26083;BME280;13848;49.018;12.078;2023-03-15T11:53:09;97683.13;;;8.52;42.84
26083;BME280;13848;49.018;12.078;2023-03-15T11:55:39;97693.94;;;9.23;42.02
26083;BME280;13848;49.018;12.078;2023-03-15T11:58:27;97684.41;;;9.66;42.55
26083;BME280;13848;49.018;12.078;2023-03-15T12:00:54;97687.34;;;9.96;40.85
26083;BME280;13848;49.018;12.078;2023-03-15T12:03:44;97677.75;;;9.68;40.51
26083;BME280;13848;49.018;12.078;2023-03-15T12:09:38;97671.94;;;10.03;41.66
26083;BME280;13848;49.018;12.078;2023-03-15T12:12:34;97666.84;;;10.70;40.56
26083;BME280;13848;49.018;12.078;2023-03-15T12:15:01;97660.34;;;10.96;40.61
26083;BME280;13848;49.018;12.078;2023-03-15T12:17:42;97663.84;;;9.78;40.82
26083;BME280;13848;49.018;12.078;2023-03-15T12:20:19;97656.00;;;9.76;41.69
26083;BME280;13848;49.018;12.078;2023-03-15T12:22:50;97658.34;;;9.91;41.67
26083;BME280;13848;49.018;12.078;2023-03-15T12:25:20;97655.13;;;9.82;39.28
26083;BME280;13848;49.018;12.078;2023-03-15T12:27:49;97648.44;;;10.17;41.21
26083;BME280;13848;49.018;12.078;2023-03-15T12:30:20;97651.09;;;10.66;40.72
26083;BME280;13848;49.018;12.078;2023-03-15T12:32:52;97647.00;;;10.14;40.13
26083;BME280;13848;49.018;12.078;2023-03-15T12:35:20;97645.72;;;10.66;41.29
26083;BME280;13848;49.018;12.078;2023-03-15T12:37:48;97649.00;;;10.50;40.52
26083;BME280;13848;49.018;12.078;2023-03-15T12:40:37;97649.00;;;10.25;40.10
26083;BME280;13848;49.018;12.078;2023-03-15T12:43:05;97639.38;;;10.79;38.94
26083;BME280;13848;49.018;12.078;2023-03-15T12:45:42;97643.53;;;10.38;38.88
26083;BME280;13848;49.018;12.078;2023-03-15T12:48:22;97655.16;;;10.76;40.68
26083;BME280;13848;49.018;12.078;2023-03-15T12:50:51;97653.00;;;11.21;42.30
26083;BME280;13848;49.018;12.078;2023-03-15T12:53:21;97650.00;;;11.11;40.01
26083;BME280;13848;49.018;12.078;2023-03-15T12:55:48;97660.72;;;10.81;41.42
26083;BME280;13848;49.018;12.078;2023-03-15T12:58:18;97665.31;;;9.74;40.49
26083;BME280;13848;49.018;12.078;2023-03-15T13:00:45;97667.50;;;9.07;40.39
26083;BME280;13848;49.018;12.078;2023-03-15T13:03:12;97677.78;;;8.59;41.78
26083;BME280;13848;49.018;12.078;2023-03-15T13:05:49;97675.44;;;8.89;42.23
26083;BME280;13848;49.018;12.078;2023-03-15T13:08:20;97680.03;;;8.62;42.66
26083;BME280;13848;49.018;12.078;2023-03-15T13:10:58;97672.91;;;9.07;43.63
26083;BME280;13848;49.018;12.078;2023-03-15T13:13:42;97668.41;;;9.77;42.36